sensor_id;sensor_type;location;lat;lon;timestamp;temperature;humidity
19261;DHT22;9764;48.114;11.670;2022-12-29T00:01:27;19.30;91.50
19261;DHT22;9764;48.114;11.670;2022-12-29T00:03:55;19.30;91.40
19261;DHT22;9764;48.114;11.670;2022-12-29T00:06:25;19.30;91.50
19261;DHT22;9764;48.114;11.670;2022-12-29T00:08:53;19.30;91.80
19261;DHT22;9764;48.114;11.670;2022-12-29T00:11:24;19.30;91.50
19261;DHT22;9764;48.114;11.670;2022-12-29T00:13:53;19.30;91.50
19261;DHT22;9764;48.114;11.670;2022-12-29T00:16:42;19.30;91.40
19261;DHT22;9764;48.114;11.670;2022-12-29T00:19:11;19.30;91.50
19261;DHT22;9764;48.114;11.670;2022-12-29T00:21:55;19.30;91.40
19261;DHT22;9764;48.114;11.670;2022-12-29T00:24:41;19.30;91.40
19261;DHT22;9764;48.114;11.670;2022-12-29T00:27:27;19.20;91.40
19261;DHT22;9764;48.114;11.670;2022-12-29T00:30:16;19.20;91.40
19261;DHT22;9764;48.114;11.670;2022-12-29T00:33:09;19.30;91.40
19261;DHT22;9764;48.114;11.670;2022-12-29T00:35:58;19.30;91.40
19261;DHT22;9764;48.114;11.670;2022-12-29T00:38:31;19.20;91.40
19261;DHT22;9764;48.114;11.670;2022-12-29T00:41:18;19.30;91.40
19261;DHT22;9764;48.114;11.670;2022-12-29T00:44:07;19.20;91.40
19261;DHT22;9764;48.114;11.670;2022-12-29T00:46:38;19.20;91.40
19261;DHT22;9764;48.114;11.670;2022-12-29T00:49:08;19.20;91.40
19261;DHT22;9764;48.114;11.670;2022-12-29T00:51:55;19.30;91.40
19261;DHT22;9764;48.114;11.670;2022-12-29T00:54:25;19.20;91.40
19261;DHT22;9764;48.114;11.670;2022-12-29T00:56:53;19.30;91.40
19261;DHT22;9764;48.114;11.670;2022-12-29T00:59:22;19.20;91.40
19261;DHT22;9764;48.114;11.670;2022-12-29T01:01:52;19.20;91.40
19261;DHT22;9764;48.114;11.670;2022-12-29T01:04:23;19.20;91.40
19261;DHT22;9764;48.114;11.670;2022-12-29T01:06:51;19.20;91.40
19261;DHT22;9764;48.114;11.670;2022-12-29T01:09:20;19.20;91.40
19261;DHT22;9764;48.114;11.670;2022-12-29T01:12:09;19.20;91.40
19261;DHT22;9764;48.114;11.670;2022-12-29T01:14:39;19.20;91.40
19261;DHT22;9764;48.114;11.670;2022-12-29T01:17:07;19.20;91.40
19261;DHT22;9764;48.114;11.670;2022-12-29T01:19:36;19.20;91.40
19261;DHT22;9764;48.114;11.670;2022-12-29T01:22:04;19.20;91.40
19261;DHT22;9764;48.114;11.670;2022-12-29T01:24:33;19.20;91.40
19261;DHT22;9764;48.114;11.670;2022-12-29T01:27:01;19.20;91.40
19261;DHT22;9764;48.114;11.670;2022-12-29T01:29:31;19.20;91.40
19261;DHT22;9764;48.114;11.670;2022-12-29T01:31:59;19.20;91.40
19261;DHT22;9764;48.114;11.670;2022-12-29T01:34:27;19.20;91.40
19261;DHT22;9764;48.114;11.670;2022-12-29T01:36:56;19.20;91.40
19261;DHT22;9764;48.114;11.670;2022-12-29T01:39:24;19.20;91.40
19261;DHT22;9764;48.114;11.670;2022-12-29T01:41:52;19.20;91.40
19261;DHT22;9764;48.114;11.670;2022-12-29T01:44:50;19.20;91.40
19261;DHT22;9764;48.114;11.670;2022-12-29T01:47:30;19.20;91.40
19261;DHT22;9764;48.114;11.670;2022-12-29T01:50:04;19.20;91.40
19261;DHT22;9764;48.114;11.670;2022-12-29T01:52:35;19.20;91.40
19261;DHT22;9764;48.114;11.670;2022-12-29T01:55:05;19.20;91.40
19261;DHT22;9764;48.114;11.670;2022-12-29T01:57:37;19.20;91.70
19261;DHT22;9764;48.114;11.670;2022-12-29T02:00:12;19.20;91.30
19261;DHT22;9764;48.114;11.670;2022-12-29T02:02:43;19.20;91.40
19261;DHT22;9764;48.114;11.670;2022-12-29T02:05:18;19.20;91.40
19261;DHT22;9764;48.114;11.670;2022-12-29T02:07:48;19.20;91.40
19261;DHT22;9764;48.114;11.670;2022-12-29T02:10:19;19.20;91.40
19261;DHT22;9764;48.114;11.670;2022-12-29T02:12:48;19.20;91.40
19261;DHT22;9764;48.114;11.670;2022-12-29T02:15:18;19.20;91.40
19261;DHT22;9764;48.114;11.670;2022-12-29T02:18:08;19.20;91.40
19261;DHT22;9764;48.114;11.670;2022-12-29T02:21:14;19.20;91.40
19261;DHT22;9764;48.114;11.670;2022-12-29T02:24:10;19.20;91.40
19261;DHT22;9764;48.114;11.670;2022-12-29T02:27:24;19.20;91.40
19261;DHT22;9764;48.114;11.670;2022-12-29T02:30:07;19.20;91.40
19261;DHT22;9764;48.114;11.670;2022-12-29T02:32:45;19.20;91.40
19261;DHT22;9764;48.114;11.670;2022-12-29T02:35:25;19.20;91.40
19261;DHT22;9764;48.114;11.670;2022-12-29T02:38:05;19.20;91.40
19261;DHT22;9764;48.114;11.670;2022-12-29T02:40:41;19.20;91.40
19261;DHT22;9764;48.114;11.670;2022-12-29T02:43:19;19.20;91.40
19261;DHT22;9764;48.114;11.670;2022-12-29T02:45:54;19.20;91.40
19261;DHT22;9764;48.114;11.670;2022-12-29T02:48:30;19.20;91.40
19261;DHT22;9764;48.114;11.670;2022-12-29T02:51:03;19.20;91.40
19261;DHT22;9764;48.114;11.670;2022-12-29T02:53:33;19.20;91.40
19261;DHT22;9764;48.114;11.670;2022-12-29T02:56:20;19.20;91.40
19261;DHT22;9764;48.114;11.670;2022-12-29T02:58:49;19.20;91.40
19261;DHT22;9764;48.114;11.670;2022-12-29T03:01:26;19.20;91.40
19261;DHT22;9764;48.114;11.670;2022-12-29T03:04:18;19.20;91.40
19261;DHT22;9764;48.114;11.670;2022-12-29T03:06:52;19.20;91.40
19261;DHT22;9764;48.114;11.670;2022-12-29T03:09:31;19.20;91.40
19261;DHT22;9764;48.114;11.670;2022-12-29T03:12:10;19.20;91.40
19261;DHT22;9764;48.114;11.670;2022-12-29T03:14:55;19.20;91.40
19261;DHT22;9764;48.114;11.670;2022-12-29T03:17:51;19.20;91.40
19261;DHT22;9764;48.114;11.670;2022-12-29T03:20:29;19.20;91.40
19261;DHT22;9764;48.114;11.670;2022-12-29T03:23:02;19.20;91.40
19261;DHT22;9764;48.114;11.670;2022-12-29T03:25:37;19.20;91.40
19261;DHT22;9764;48.114;11.670;2022-12-29T03:28:12;19.20;91.40
19261;DHT22;9764;48.114;11.670;2022-12-29T03:30:45;19.20;91.40
19261;DHT22;9764;48.114;11.670;2022-12-29T03:33:21;19.20;91.40
19261;DHT22;9764;48.114;11.670;2022-12-29T03:35:53;19.20;91.40
19261;DHT22;9764;48.114;11.670;2022-12-29T03:38:32;19.20;91.40
19261;DHT22;9764;48.114;11.670;2022-12-29T03:41:04;19.20;91.40
19261;DHT22;9764;48.114;11.670;2022-12-29T03:43:34;19.20;91.50
19261;DHT22;9764;48.114;11.670;2022-12-29T03:46:02;19.10;91.40
19261;DHT22;9764;48.114;11.670;2022-12-29T03:48:31;19.20;91.50
19261;DHT22;9764;48.114;11.670;2022-12-29T03:51:02;19.20;91.50
19261;DHT22;9764;48.114;11.670;2022-12-29T03:53:30;19.20;91.50
19261;DHT22;9764;48.114;11.670;2022-12-29T03:56:00;19.20;91.50
19261;DHT22;9764;48.114;11.670;2022-12-29T03:58:28;19.20;91.50
19261;DHT22;9764;48.114;11.670;2022-12-29T04:01:03;19.20;91.50
19261;DHT22;9764;48.114;11.670;2022-12-29T04:03:34;19.20;91.40
19261;DHT22;9764;48.114;11.670;2022-12-29T04:06:04;19.20;91.50
19261;DHT22;9764;48.114;11.670;2022-12-29T04:08:40;19.20;91.40
19261;DHT22;9764;48.114;11.670;2022-12-29T04:11:08;19.20;91.40
19261;DHT22;9764;48.114;11.670;2022-12-29T04:13:37;19.20;91.40
19261;DHT22;9764;48.114;11.670;2022-12-29T04:16:09;19.20;91.40
19261;DHT22;9764;48.114;11.670;2022-12-29T04:18:37;19.20;91.40
19261;DHT22;9764;48.114;11.670;2022-12-29T04:21:07;19.20;91.40
19261;DHT22;9764;48.114;11.670;2022-12-29T04:23:38;19.20;91.40
19261;DHT22;9764;48.114;11.670;2022-12-29T04:26:08;19.20;91.40
19261;DHT22;9764;48.114;11.670;2022-12-29T04:28:52;19.20;91.40
19261;DHT22;9764;48.114;11.670;2022-12-29T04:31:37;19.20;91.40
19261;DHT22;9764;48.114;11.670;2022-12-29T04:34:06;19.20;91.40
19261;DHT22;9764;48.114;11.670;2022-12-29T04:36:37;19.20;91.40
19261;DHT22;9764;48.114;11.670;2022-12-29T04:39:06;19.20;91.40
19261;DHT22;9764;48.114;11.670;2022-12-29T04:41:37;19.20;91.40
19261;DHT22;9764;48.114;11.670;2022-12-29T04:44:08;19.20;91.40
19261;DHT22;9764;48.114;11.670;2022-12-29T04:46:52;19.20;91.40
19261;DHT22;9764;48.114;11.670;2022-12-29T04:49:40;19.20;91.40
19261;DHT22;9764;48.114;11.670;2022-12-29T04:52:28;19.20;91.40
19261;DHT22;9764;48.114;11.670;2022-12-29T04:54:57;19.20;91.40
19261;DHT22;9764;48.114;11.670;2022-12-29T04:57:25;19.20;91.40
19261;DHT22;9764;48.114;11.670;2022-12-29T04:59:56;19.20;91.40
19261;DHT22;9764;48.114;11.670;2022-12-29T05:02:24;19.20;91.40
19261;DHT22;9764;48.114;11.670;2022-12-29T05:04:54;19.20;91.40
19261;DHT22;9764;48.114;11.670;2022-12-29T05:07:23;19.20;91.40
19261;DHT22;9764;48.114;11.670;2022-12-29T05:09:54;19.20;91.40
19261;DHT22;9764;48.114;11.670;2022-12-29T05:12:22;19.20;91.40
19261;DHT22;9764;48.114;11.670;2022-12-29T05:15:01;19.20;91.40
19261;DHT22;9764;48.114;11.670;2022-12-29T05:17:30;19.20;91.40
19261;DHT22;9764;48.114;11.670;2022-12-29T05:19:59;19.20;91.40
19261;DHT22;9764;48.114;11.670;2022-12-29T05:22:27;19.20;91.40
19261;DHT22;9764;48.114;11.670;2022-12-29T05:24:57;19.20;91.30
19261;DHT22;9764;48.114;11.670;2022-12-29T05:27:29;19.20;91.30
19261;DHT22;9764;48.114;11.670;2022-12-29T05:30:05;19.20;91.40
19261;DHT22;9764;48.114;11.670;2022-12-29T05:32:34;19.20;91.40
19261;DHT22;9764;48.114;11.670;2022-12-29T05:35:02;19.20;91.40
19261;DHT22;9764;48.114;11.670;2022-12-29T05:37:32;19.20;91.40
19261;DHT22;9764;48.114;11.670;2022-12-29T05:40:03;19.20;91.40
19261;DHT22;9764;48.114;11.670;2022-12-29T05:42:32;19.30;91.30
19261;DHT22;9764;48.114;11.670;2022-12-29T05:45:38;19.30;91.40
19261;DHT22;9764;48.114;11.670;2022-12-29T05:48:27;19.30;91.40
19261;DHT22;9764;48.114;11.670;2022-12-29T05:51:13;19.30;91.40
19261;DHT22;9764;48.114;11.670;2022-12-29T05:53:47;19.30;91.40
19261;DHT22;9764;48.114;11.670;2022-12-29T05:56:17;19.30;91.50
19261;DHT22;9764;48.114;11.670;2022-12-29T05:58:52;19.30;91.80
19261;DHT22;9764;48.114;11.670;2022-12-29T06:01:21;19.30;91.40
19261;DHT22;9764;48.114;11.670;2022-12-29T06:03:50;19.30;91.50
19261;DHT22;9764;48.114;11.670;2022-12-29T06:06:20;19.20;91.50
19261;DHT22;9764;48.114;11.670;2022-12-29T06:08:48;19.20;91.50
19261;DHT22;9764;48.114;11.670;2022-12-29T06:11:19;19.30;91.50
19261;DHT22;9764;48.114;11.670;2022-12-29T06:13:52;19.20;91.50
19261;DHT22;9764;48.114;11.670;2022-12-29T06:16:20;19.30;91.50
19261;DHT22;9764;48.114;11.670;2022-12-29T06:18:52;19.30;91.50
19261;DHT22;9764;48.114;11.670;2022-12-29T06:21:21;19.30;91.40
19261;DHT22;9764;48.114;11.670;2022-12-29T06:23:49;19.30;91.50
19261;DHT22;9764;48.114;11.670;2022-12-29T06:26:19;19.30;91.40
19261;DHT22;9764;48.114;11.670;2022-12-29T06:28:48;19.30;91.50
19261;DHT22;9764;48.114;11.670;2022-12-29T06:31:16;19.30;91.40
19261;DHT22;9764;48.114;11.670;2022-12-29T06:33:45;19.30;91.40
19261;DHT22;9764;48.114;11.670;2022-12-29T06:36:16;19.30;91.80
19261;DHT22;9764;48.114;11.670;2022-12-29T06:38:45;19.30;91.40
19261;DHT22;9764;48.114;11.670;2022-12-29T06:41:13;19.30;91.40
19261;DHT22;9764;48.114;11.670;2022-12-29T06:44:01;19.30;91.40
19261;DHT22;9764;48.114;11.670;2022-12-29T06:46:49;19.30;91.40
19261;DHT22;9764;48.114;11.670;2022-12-29T06:49:17;19.30;91.30
19261;DHT22;9764;48.114;11.670;2022-12-29T06:51:45;19.30;91.30
19261;DHT22;9764;48.114;11.670;2022-12-29T06:54:14;19.30;91.40
19261;DHT22;9764;48.114;11.670;2022-12-29T06:56:42;19.30;91.30
19261;DHT22;9764;48.114;11.670;2022-12-29T06:59:12;19.30;91.30
19261;DHT22;9764;48.114;11.670;2022-12-29T07:01:40;19.30;91.30
19261;DHT22;9764;48.114;11.670;2022-12-29T07:04:08;19.30;91.30
19261;DHT22;9764;48.114;11.670;2022-12-29T07:06:37;19.30;91.30
19261;DHT22;9764;48.114;11.670;2022-12-29T07:09:07;19.30;91.20
19261;DHT22;9764;48.114;11.670;2022-12-29T07:11:36;19.30;91.30
19261;DHT22;9764;48.114;11.670;2022-12-29T07:14:04;19.30;91.20
19261;DHT22;9764;48.114;11.670;2022-12-29T07:16:34;19.30;91.40
19261;DHT22;9764;48.114;11.670;2022-12-29T07:19:02;19.30;91.60
19261;DHT22;9764;48.114;11.670;2022-12-29T07:21:30;19.30;91.30
19261;DHT22;9764;48.114;11.670;2022-12-29T07:23:58;19.30;91.30
19261;DHT22;9764;48.114;11.670;2022-12-29T07:26:27;19.30;91.30
19261;DHT22;9764;48.114;11.670;2022-12-29T07:29:02;19.30;91.30
19261;DHT22;9764;48.114;11.670;2022-12-29T07:31:30;19.30;91.30
19261;DHT22;9764;48.114;11.670;2022-12-29T07:34:00;19.30;91.30
19261;DHT22;9764;48.114;11.670;2022-12-29T07:36:28;19.30;91.70
19261;DHT22;9764;48.114;11.670;2022-12-29T07:39:00;19.30;91.30
19261;DHT22;9764;48.114;11.670;2022-12-29T07:41:29;19.30;91.30
19261;DHT22;9764;48.114;11.670;2022-12-29T07:44:00;19.30;91.30
19261;DHT22;9764;48.114;11.670;2022-12-29T07:46:55;19.30;91.30
19261;DHT22;9764;48.114;11.670;2022-12-29T07:49:26;19.30;91.30
19261;DHT22;9764;48.114;11.670;2022-12-29T07:51:54;19.30;91.30
19261;DHT22;9764;48.114;11.670;2022-12-29T07:54:23;19.30;91.30
19261;DHT22;9764;48.114;11.670;2022-12-29T07:56:51;19.30;91.20
19261;DHT22;9764;48.114;11.670;2022-12-29T07:59:19;19.30;91.20
19261;DHT22;9764;48.114;11.670;2022-12-29T08:01:47;19.30;91.20
19261;DHT22;9764;48.114;11.670;2022-12-29T08:04:16;19.30;91.20
19261;DHT22;9764;48.114;11.670;2022-12-29T08:06:45;19.30;91.20
19261;DHT22;9764;48.114;11.670;2022-12-29T08:09:14;19.30;91.20
19261;DHT22;9764;48.114;11.670;2022-12-29T08:11:48;19.30;91.10
19261;DHT22;9764;48.114;11.670;2022-12-29T08:14:16;19.30;91.20
19261;DHT22;9764;48.114;11.670;2022-12-29T08:16:45;19.30;91.10
19261;DHT22;9764;48.114;11.670;2022-12-29T08:19:14;19.30;91.10
19261;DHT22;9764;48.114;11.670;2022-12-29T08:21:42;19.30;91.10
19261;DHT22;9764;48.114;11.670;2022-12-29T08:24:12;19.30;91.10
19261;DHT22;9764;48.114;11.670;2022-12-29T08:26:40;19.30;91.10
19261;DHT22;9764;48.114;11.670;2022-12-29T08:29:08;19.30;91.10
19261;DHT22;9764;48.114;11.670;2022-12-29T08:31:37;19.30;91.10
19261;DHT22;9764;48.114;11.670;2022-12-29T08:34:05;19.30;91.10
19261;DHT22;9764;48.114;11.670;2022-12-29T08:36:33;19.30;91.10
19261;DHT22;9764;48.114;11.670;2022-12-29T08:39:02;19.30;91.10
19261;DHT22;9764;48.114;11.670;2022-12-29T08:41:31;19.30;91.10
19261;DHT22;9764;48.114;11.670;2022-12-29T08:44:00;19.30;91.10
19261;DHT22;9764;48.114;11.670;2022-12-29T08:46:28;19.30;91.10
19261;DHT22;9764;48.114;11.670;2022-12-29T08:48:56;19.30;91.10
19261;DHT22;9764;48.114;11.670;2022-12-29T08:51:25;19.30;91.10
19261;DHT22;9764;48.114;11.670;2022-12-29T08:53:53;19.30;91.10
19261;DHT22;9764;48.114;11.670;2022-12-29T08:56:21;19.30;91.10
19261;DHT22;9764;48.114;11.670;2022-12-29T08:58:55;19.30;91.10
19261;DHT22;9764;48.114;11.670;2022-12-29T09:01:24;19.30;91.10
19261;DHT22;9764;48.114;11.670;2022-12-29T09:03:53;19.30;91.10
19261;DHT22;9764;48.114;11.670;2022-12-29T09:06:42;19.30;91.10
19261;DHT22;9764;48.114;11.670;2022-12-29T09:09:10;19.30;91.10
19261;DHT22;9764;48.114;11.670;2022-12-29T09:11:39;19.30;91.10
19261;DHT22;9764;48.114;11.670;2022-12-29T09:14:08;19.30;91.10
19261;DHT22;9764;48.114;11.670;2022-12-29T09:16:37;19.30;91.00
19261;DHT22;9764;48.114;11.670;2022-12-29T09:19:06;19.30;90.90
19261;DHT22;9764;48.114;11.670;2022-12-29T09:21:34;19.30;90.90
19261;DHT22;9764;48.114;11.670;2022-12-29T09:24:02;19.30;90.90
19261;DHT22;9764;48.114;11.670;2022-12-29T09:26:31;19.30;90.90
19261;DHT22;9764;48.114;11.670;2022-12-29T09:28:59;19.30;90.90
19261;DHT22;9764;48.114;11.670;2022-12-29T09:31:29;19.30;90.90
19261;DHT22;9764;48.114;11.670;2022-12-29T09:33:57;19.30;90.90
19261;DHT22;9764;48.114;11.670;2022-12-29T09:36:25;19.30;90.80
19261;DHT22;9764;48.114;11.670;2022-12-29T09:38:54;19.30;90.80
19261;DHT22;9764;48.114;11.670;2022-12-29T09:41:26;19.30;90.90
19261;DHT22;9764;48.114;11.670;2022-12-29T09:44:03;19.30;90.80
19261;DHT22;9764;48.114;11.670;2022-12-29T09:46:37;19.30;90.80
19261;DHT22;9764;48.114;11.670;2022-12-29T09:49:14;19.30;90.90
19261;DHT22;9764;48.114;11.670;2022-12-29T09:51:47;19.30;90.80
19261;DHT22;9764;48.114;11.670;2022-12-29T09:54:39;19.30;90.90
19261;DHT22;9764;48.114;11.670;2022-12-29T09:57:21;19.30;91.00
19261;DHT22;9764;48.114;11.670;2022-12-29T09:59:55;19.30;90.90
19261;DHT22;9764;48.114;11.670;2022-12-29T10:02:32;19.30;91.00
19261;DHT22;9764;48.114;11.670;2022-12-29T10:05:01;19.30;90.80
19261;DHT22;9764;48.114;11.670;2022-12-29T10:07:38;19.40;90.90
19261;DHT22;9764;48.114;11.670;2022-12-29T10:10:22;19.40;90.80
19261;DHT22;9764;48.114;11.670;2022-12-29T10:13:06;19.50;90.90
19261;DHT22;9764;48.114;11.670;2022-12-29T10:15:44;19.50;90.90
19261;DHT22;9764;48.114;11.670;2022-12-29T10:18:24;19.50;91.00
19261;DHT22;9764;48.114;11.670;2022-12-29T10:21:02;19.60;91.00
19261;DHT22;9764;48.114;11.670;2022-12-29T10:23:35;19.60;91.00
19261;DHT22;9764;48.114;11.670;2022-12-29T10:26:04;19.60;91.10
19261;DHT22;9764;48.114;11.670;2022-12-29T10:28:39;19.60;91.20
19261;DHT22;9764;48.114;11.670;2022-12-29T10:31:13;19.50;91.20
19261;DHT22;9764;48.114;11.670;2022-12-29T10:33:45;19.50;91.20
19261;DHT22;9764;48.114;11.670;2022-12-29T10:36:17;19.50;91.60
19261;DHT22;9764;48.114;11.670;2022-12-29T10:38:53;19.50;91.60
19261;DHT22;9764;48.114;11.670;2022-12-29T10:41:27;19.50;91.60
19261;DHT22;9764;48.114;11.670;2022-12-29T10:43:57;19.50;91.50
19261;DHT22;9764;48.114;11.670;2022-12-29T10:46:28;19.50;91.60
19261;DHT22;9764;48.114;11.670;2022-12-29T10:48:59;19.50;91.60
19261;DHT22;9764;48.114;11.670;2022-12-29T10:51:31;19.50;91.50
19261;DHT22;9764;48.114;11.670;2022-12-29T10:54:03;19.50;91.50
19261;DHT22;9764;48.114;11.670;2022-12-29T10:56:35;19.50;91.60
19261;DHT22;9764;48.114;11.670;2022-12-29T10:59:10;19.50;91.60
19261;DHT22;9764;48.114;11.670;2022-12-29T11:01:52;19.50;91.60
19261;DHT22;9764;48.114;11.670;2022-12-29T11:04:42;19.50;91.30
19261;DHT22;9764;48.114;11.670;2022-12-29T11:07:11;19.50;91.10
19261;DHT22;9764;48.114;11.670;2022-12-29T11:09:43;19.60;91.10
19261;DHT22;9764;48.114;11.670;2022-12-29T11:12:20;19.50;91.00
19261;DHT22;9764;48.114;11.670;2022-12-29T11:15:05;19.60;91.00
19261;DHT22;9764;48.114;11.670;2022-12-29T11:17:46;19.60;91.40
19261;DHT22;9764;48.114;11.670;2022-12-29T11:20:32;19.60;91.10
19261;DHT22;9764;48.114;11.670;2022-12-29T11:23:01;19.60;91.40
19261;DHT22;9764;48.114;11.670;2022-12-29T11:25:30;19.60;91.60
19261;DHT22;9764;48.114;11.670;2022-12-29T11:28:14;19.60;91.70
19261;DHT22;9764;48.114;11.670;2022-12-29T11:30:43;19.60;91.10
19261;DHT22;9764;48.114;11.670;2022-12-29T11:33:11;19.60;91.50
19261;DHT22;9764;48.114;11.670;2022-12-29T11:35:42;19.60;91.80
19261;DHT22;9764;48.114;11.670;2022-12-29T11:38:20;19.70;92.20
19261;DHT22;9764;48.114;11.670;2022-12-29T11:40:48;19.70;92.20
19261;DHT22;9764;48.114;11.670;2022-12-29T11:43:23;19.70;92.20
19261;DHT22;9764;48.114;11.670;2022-12-29T11:45:55;19.70;92.10
19261;DHT22;9764;48.114;11.670;2022-12-29T11:48:33;19.80;92.10
19261;DHT22;9764;48.114;11.670;2022-12-29T11:51:08;19.80;92.00
19261;DHT22;9764;48.114;11.670;2022-12-29T11:53:41;19.80;92.00
19261;DHT22;9764;48.114;11.670;2022-12-29T11:56:14;19.80;91.90
19261;DHT22;9764;48.114;11.670;2022-12-29T11:58:43;19.80;91.90
19261;DHT22;9764;48.114;11.670;2022-12-29T12:01:15;19.80;91.90
19261;DHT22;9764;48.114;11.670;2022-12-29T12:03:49;19.80;91.90
19261;DHT22;9764;48.114;11.670;2022-12-29T12:06:20;19.80;92.00
19261;DHT22;9764;48.114;11.670;2022-12-29T12:08:54;19.80;91.90
19261;DHT22;9764;48.114;11.670;2022-12-29T12:11:26;19.80;91.90
19261;DHT22;9764;48.114;11.670;2022-12-29T12:14:02;19.70;91.90
19261;DHT22;9764;48.114;11.670;2022-12-29T12:16:55;19.70;91.90
19261;DHT22;9764;48.114;11.670;2022-12-29T12:19:32;19.70;91.90
19261;DHT22;9764;48.114;11.670;2022-12-29T12:22:10;19.80;91.80
19261;DHT22;9764;48.114;11.670;2022-12-29T12:24:43;19.90;91.60
19261;DHT22;9764;48.114;11.670;2022-12-29T12:27:17;19.90;91.60
19261;DHT22;9764;48.114;11.670;2022-12-29T12:29:52;20.00;91.50
19261;DHT22;9764;48.114;11.670;2022-12-29T12:32:27;20.00;91.40
19261;DHT22;9764;48.114;11.670;2022-12-29T12:34:57;20.00;91.40
19261;DHT22;9764;48.114;11.670;2022-12-29T12:37:44;19.90;91.40
19261;DHT22;9764;48.114;11.670;2022-12-29T12:40:34;19.90;91.40
19261;DHT22;9764;48.114;11.670;2022-12-29T12:49:38;19.90;91.40
19261;DHT22;9764;48.114;11.670;2022-12-29T12:52:19;19.90;91.30
19261;DHT22;9764;48.114;11.670;2022-12-29T12:55:06;19.90;91.30
19261;DHT22;9764;48.114;11.670;2022-12-29T12:57:46;19.90;91.40
19261;DHT22;9764;48.114;11.670;2022-12-29T13:00:18;19.90;91.40
19261;DHT22;9764;48.114;11.670;2022-12-29T13:03:00;19.90;91.40
19261;DHT22;9764;48.114;11.670;2022-12-29T13:05:41;19.80;91.40
19261;DHT22;9764;48.114;11.670;2022-12-29T13:08:36;19.80;91.40
19261;DHT22;9764;48.114;11.670;2022-12-29T13:11:15;19.90;91.40
19261;DHT22;9764;48.114;11.670;2022-12-29T13:13:59;19.90;91.30
19261;DHT22;9764;48.114;11.670;2022-12-29T13:16:36;19.90;91.30
19261;DHT22;9764;48.114;11.670;2022-12-29T13:19:14;19.90;91.30
19261;DHT22;9764;48.114;11.670;2022-12-29T13:21:55;19.90;91.30
19261;DHT22;9764;48.114;11.670;2022-12-29T13:24:40;19.90;91.30
19261;DHT22;9764;48.114;11.670;2022-12-29T13:27:16;19.90;91.30
19261;DHT22;9764;48.114;11.670;2022-12-29T13:29:50;20.00;91.20
19261;DHT22;9764;48.114;11.670;2022-12-29T13:32:34;20.00;91.20
19261;DHT22;9764;48.114;11.670;2022-12-29T13:35:16;20.00;91.20
19261;DHT22;9764;48.114;11.670;2022-12-29T13:41:19;19.90;91.20
19261;DHT22;9764;48.114;11.670;2022-12-29T13:44:18;19.90;91.20
19261;DHT22;9764;48.114;11.670;2022-12-29T13:47:07;20.00;91.20
19261;DHT22;9764;48.114;11.670;2022-12-29T13:49:39;20.00;91.20
19261;DHT22;9764;48.114;11.670;2022-12-29T13:52:13;20.00;91.20
19261;DHT22;9764;48.114;11.670;2022-12-29T13:54:54;20.00;91.20
19261;DHT22;9764;48.114;11.670;2022-12-29T13:57:41;20.00;91.20
19261;DHT22;9764;48.114;11.670;2022-12-29T14:00:16;20.00;91.30
19261;DHT22;9764;48.114;11.670;2022-12-29T14:03:01;20.00;91.20
19261;DHT22;9764;48.114;11.670;2022-12-29T14:05:38;20.00;91.30
19261;DHT22;9764;48.114;11.670;2022-12-29T14:08:16;20.00;91.30
19261;DHT22;9764;48.114;11.670;2022-12-29T14:10:47;20.00;91.30
19261;DHT22;9764;48.114;11.670;2022-12-29T14:13:17;20.00;91.30
19261;DHT22;9764;48.114;11.670;2022-12-29T14:15:51;20.00;91.30
19261;DHT22;9764;48.114;11.670;2022-12-29T14:18:22;20.00;91.30
19261;DHT22;9764;48.114;11.670;2022-12-29T14:20:56;20.00;91.30
19261;DHT22;9764;48.114;11.670;2022-12-29T14:23:28;20.00;91.20
19261;DHT22;9764;48.114;11.670;2022-12-29T14:26:15;20.00;91.20
19261;DHT22;9764;48.114;11.670;2022-12-29T14:28:45;20.00;91.30
19261;DHT22;9764;48.114;11.670;2022-12-29T14:31:34;20.00;91.20
19261;DHT22;9764;48.114;11.670;2022-12-29T14:34:28;20.00;91.30
19261;DHT22;9764;48.114;11.670;2022-12-29T14:36:58;20.00;91.30
19261;DHT22;9764;48.114;11.670;2022-12-29T14:39:34;20.00;91.30
19261;DHT22;9764;48.114;11.670;2022-12-29T14:42:05;20.00;91.30
19261;DHT22;9764;48.114;11.670;2022-12-29T14:44:34;20.00;91.20
19261;DHT22;9764;48.114;11.670;2022-12-29T14:47:19;20.00;91.20
19261;DHT22;9764;48.114;11.670;2022-12-29T14:49:48;20.00;91.30
19261;DHT22;9764;48.114;11.670;2022-12-29T14:52:19;20.00;91.30
19261;DHT22;9764;48.114;11.670;2022-12-29T14:54:50;20.00;91.30
19261;DHT22;9764;48.114;11.670;2022-12-29T14:57:22;20.00;91.30
19261;DHT22;9764;48.114;11.670;2022-12-29T14:59:55;20.00;91.30
19261;DHT22;9764;48.114;11.670;2022-12-29T15:02:33;20.00;91.40
19261;DHT22;9764;48.114;11.670;2022-12-29T15:05:03;20.00;91.30
19261;DHT22;9764;48.114;11.670;2022-12-29T15:07:33;20.00;91.30
19261;DHT22;9764;48.114;11.670;2022-12-29T15:10:05;20.00;91.30
19261;DHT22;9764;48.114;11.670;2022-12-29T15:12:38;20.00;91.30
19261;DHT22;9764;48.114;11.670;2022-12-29T15:15:18;20.10;91.20
19261;DHT22;9764;48.114;11.670;2022-12-29T15:17:48;20.10;91.20
19261;DHT22;9764;48.114;11.670;2022-12-29T15:20:23;20.10;91.50
19261;DHT22;9764;48.114;11.670;2022-12-29T15:22:55;20.10;91.20
19261;DHT22;9764;48.114;11.670;2022-12-29T15:25:24;20.10;91.20
19261;DHT22;9764;48.114;11.670;2022-12-29T15:28:02;20.10;91.20
19261;DHT22;9764;48.114;11.670;2022-12-29T15:30:31;20.10;91.30
19261;DHT22;9764;48.114;11.670;2022-12-29T15:33:01;20.00;91.30
19261;DHT22;9764;48.114;11.670;2022-12-29T15:35:32;20.10;91.20
19261;DHT22;9764;48.114;11.670;2022-12-29T15:38:13;20.10;91.20
19261;DHT22;9764;48.114;11.670;2022-12-29T15:40:44;20.10;91.20
19261;DHT22;9764;48.114;11.670;2022-12-29T15:43:30;20.10;91.20
19261;DHT22;9764;48.114;11.670;2022-12-29T15:46:11;20.10;91.10
19261;DHT22;9764;48.114;11.670;2022-12-29T15:48:41;20.20;91.10
19261;DHT22;9764;48.114;11.670;2022-12-29T15:51:19;20.20;91.20
19261;DHT22;9764;48.114;11.670;2022-12-29T15:53:49;20.20;91.10
19261;DHT22;9764;48.114;11.670;2022-12-29T15:56:18;20.20;91.10
19261;DHT22;9764;48.114;11.670;2022-12-29T15:58:48;20.20;91.10
19261;DHT22;9764;48.114;11.670;2022-12-29T16:01:18;20.10;91.50
19261;DHT22;9764;48.114;11.670;2022-12-29T16:03:50;20.10;91.20
19261;DHT22;9764;48.114;11.670;2022-12-29T16:06:32;20.00;91.30
19261;DHT22;9764;48.114;11.670;2022-12-29T16:09:03;20.00;91.30
19261;DHT22;9764;48.114;11.670;2022-12-29T16:11:34;20.00;91.30
19261;DHT22;9764;48.114;11.670;2022-12-29T16:14:08;20.00;91.70
19261;DHT22;9764;48.114;11.670;2022-12-29T16:16:39;20.00;91.40
19261;DHT22;9764;48.114;11.670;2022-12-29T16:19:13;20.00;91.40
19261;DHT22;9764;48.114;11.670;2022-12-29T16:21:43;20.10;91.30
19261;DHT22;9764;48.114;11.670;2022-12-29T16:24:15;20.10;91.30